createdAt,value
2024-05-09T00:02:18.432Z,93033.06
2024-05-09T00:07:21.912Z,93019.47
2024-05-09T00:12:25.301Z,93014.19
2024-05-09T00:17:29.112Z,93004.78
2024-05-09T00:22:33.255Z,92994.25
2024-05-09T00:27:37.410Z,92986.91
2024-05-09T00:32:40.960Z,92985.38
2024-05-09T00:37:44.406Z,92988.00
2024-05-09T00:42:47.995Z,92998.97
2024-05-09T00:47:51.820Z,92999.28
2024-05-09T00:52:55.725Z,92990.91
2024-05-09T00:57:59.335Z,92972.50
2024-05-09T01:03:03.302Z,92971.38
2024-05-09T01:08:07.585Z,92975.03
2024-05-09T01:13:11.252Z,92976.00
2024-05-09T01:18:15.095Z,92994.97
2024-05-09T01:23:18.572Z,93002.09
2024-05-09T01:28:22.176Z,93008.75
2024-05-09T01:33:25.925Z,93012.59
2024-05-09T01:38:29.739Z,93006.41
2024-05-09T01:43:33.190Z,93008.13
2024-05-09T01:48:36.783Z,93012.50
2024-05-09T01:53:40.136Z,93009.47
2024-05-09T01:58:43.523Z,93029.41
2024-05-09T02:03:49.976Z,93016.53
2024-05-09T02:08:53.555Z,93015.84
2024-05-09T02:13:56.937Z,93024.50
2024-05-09T02:19:00.314Z,93026.84
2024-05-09T02:24:04.098Z,93016.78
2024-05-09T02:29:07.990Z,93012.53
2024-05-09T02:34:11.569Z,93014.13
2024-05-09T02:39:15.202Z,93011.06
2024-05-09T02:44:18.588Z,93005.59
2024-05-09T02:49:22.158Z,92997.44
2024-05-09T02:54:25.546Z,92995.13
2024-05-09T02:59:28.925Z,92989.66
2024-05-09T03:04:32.537Z,92985.81
2024-05-09T03:09:35.889Z,92981.16
2024-05-09T03:14:39.189Z,93002.63
2024-05-09T03:19:42.460Z,93000.66
2024-05-09T03:24:45.794Z,93003.03
2024-05-09T03:29:49.055Z,93009.28
2024-05-09T03:34:52.560Z,93016.31
2024-05-09T03:39:55.855Z,93003.84
2024-05-09T03:44:59.098Z,93005.03
2024-05-09T03:50:03.332Z,93009.28
2024-05-09T03:55:09.177Z,93005.78
2024-05-09T04:00:18.297Z,93006.53
2024-05-09T04:05:31.226Z,93008.47
2024-05-09T04:10:35.523Z,93017.81
2024-05-09T04:15:39.501Z,93015.84
2024-05-09T04:20:43.125Z,93008.03
2024-05-09T04:25:47.181Z,93017.00
2024-05-09T04:30:51.113Z,93031.81
2024-05-09T04:35:54.712Z,93028.28
2024-05-09T04:40:58.207Z,93028.66
2024-05-09T04:46:01.679Z,93021.63
2024-05-09T04:51:07.579Z,93031.34
2024-05-09T04:56:10.993Z,93014.13
2024-05-09T05:01:16.438Z,93022.28
2024-05-09T05:06:19.744Z,93010.13
2024-05-09T05:11:23.297Z,93018.59
2024-05-09T05:16:26.798Z,93016.19
2024-05-09T05:21:30.265Z,93022.78
2024-05-09T05:26:34.933Z,93009.03
2024-05-09T05:31:38.682Z,93002.00
2024-05-09T05:36:42.058Z,93008.66
2024-05-09T05:41:45.285Z,93018.47
2024-05-09T05:46:49.268Z,93020.81
2024-05-09T05:58:19.901Z,93013.66
2024-05-09T06:03:24.311Z,93023.34
2024-05-09T06:08:30.277Z,93027.56
2024-05-09T06:13:34.308Z,93034.56
2024-05-09T06:18:38.218Z,93029.00
2024-05-09T06:23:49.036Z,93037.94
2024-05-09T06:28:52.507Z,93048.88
2024-05-09T06:33:56.254Z,93050.03
2024-05-09T06:38:59.731Z,93052.03
2024-05-09T06:44:03.247Z,93048.59
2024-05-09T06:49:09.326Z,93047.47
2024-05-09T06:54:12.895Z,93058.06
2024-05-09T06:59:16.574Z,93075.72
2024-05-09T07:04:20.200Z,93053.81
2024-05-09T07:09:23.798Z,93057.81
2024-05-09T07:14:27.490Z,93048.56
2024-05-09T07:19:31.104Z,93038.81
2024-05-09T07:24:36.230Z,93041.09
2024-05-09T07:29:39.687Z,93053.53
2024-05-09T07:34:43.129Z,93044.44
2024-05-09T07:39:46.761Z,93055.78
2024-05-09T07:44:50.345Z,93055.47
2024-05-09T07:51:32.896Z,93061.72
2024-05-09T07:55:17.661Z,93068.34
2024-05-09T08:00:29.503Z,93081.91
2024-05-09T08:05:35.284Z,93088.06
2024-05-09T08:10:38.858Z,93082.00
2024-05-09T08:15:42.904Z,93084.53
2024-05-09T08:20:52.904Z,93099.03
2024-05-09T08:25:56.239Z,93089.22
2024-05-09T08:31:01.645Z,93088.06
2024-05-09T08:36:05.983Z,93084.56
2024-05-09T08:41:09.449Z,93079.06
2024-05-09T08:46:13.830Z,93079.59
2024-05-09T08:51:17.642Z,93084.44
2024-05-09T08:56:23.373Z,93073.19
2024-05-09T09:01:31.485Z,93074.94
2024-05-09T09:06:36.116Z,93078.53
2024-05-09T09:11:39.720Z,93067.97
2024-05-09T09:16:43.645Z,93081.34
2024-05-09T09:21:47.136Z,93074.03
2024-05-09T09:26:54.562Z,93067.50
2024-05-09T09:32:07.293Z,93078.03
2024-05-09T09:37:14.611Z,93080.00
2024-05-09T09:42:25.482Z,93081.34
2024-05-09T09:47:40.522Z,93083.50
2024-05-09T09:52:46.691Z,93084.34
2024-05-09T09:57:50.654Z,93087.75
2024-05-09T10:02:54.348Z,93096.28
2024-05-09T10:07:59.095Z,93092.81
2024-05-09T10:13:06.510Z,93096.69
2024-05-09T10:18:11.423Z,93084.81
2024-05-09T10:23:31.507Z,93099.66
2024-05-09T10:28:42.988Z,93105.69
2024-05-09T10:33:53.793Z,93110.41
2024-05-09T10:44:40.389Z,93117.38
2024-05-09T10:49:44.882Z,93114.16
2024-05-09T10:54:59.148Z,93117.09
2024-05-09T11:00:18.972Z,93118.94
2024-05-09T11:05:27.699Z,93121.84
2024-05-09T11:10:34.221Z,93104.28
2024-05-09T11:15:42.323Z,93113.63
2024-05-09T11:20:49.812Z,93109.69
2024-05-09T11:26:02.922Z,93116.97
2024-05-09T11:31:11.153Z,93120.53
2024-05-09T11:36:23.049Z,93118.88
2024-05-09T11:41:33.111Z,93122.63
2024-05-09T11:46:55.689Z,93117.63
2024-05-09T11:52:29.059Z,93125.34
2024-05-09T11:57:35.936Z,93114.81
2024-05-09T12:02:48.829Z,93130.56
2024-05-09T12:07:54.149Z,93135.56
2024-05-09T12:13:00.812Z,93130.88
2024-05-09T12:18:11.288Z,93131.63
2024-05-09T12:23:17.079Z,93132.69
2024-05-09T12:28:24.698Z,93130.78
2024-05-09T12:33:33.419Z,93120.97
2024-05-09T12:38:37.221Z,93115.09
2024-05-09T12:43:45.916Z,93119.59
2024-05-09T12:48:54.327Z,93100.78
2024-05-09T12:54:01.336Z,93080.03
2024-05-09T13:13:03.304Z,93100.16
2024-05-09T13:18:07.710Z,93096.66
2024-05-09T13:23:11.526Z,93109.50
2024-05-09T13:28:15.333Z,93114.00
2024-05-09T13:33:18.875Z,93088.53
2024-05-09T13:38:22.927Z,93081.84
2024-05-09T13:43:26.875Z,93058.84
2024-05-09T13:48:30.618Z,93050.31
2024-05-09T13:53:34.017Z,93036.56
2024-05-09T13:58:37.376Z,93042.41
2024-05-09T14:03:41.227Z,93035.94
2024-05-09T14:08:44.931Z,93031.47
2024-05-09T14:13:48.249Z,93030.97
2024-05-09T14:18:51.929Z,93040.50
2024-05-09T14:23:55.734Z,93040.16
2024-05-09T14:28:59.136Z,93025.81
2024-05-09T14:34:02.821Z,93026.56
2024-05-09T14:39:06.191Z,93031.38
2024-05-09T14:44:09.588Z,93028.97
2024-05-09T14:49:13.023Z,93024.56
2024-05-09T14:54:16.732Z,93033.22
2024-05-09T14:59:19.992Z,93027.06
2024-05-09T15:04:24.301Z,93031.06
2024-05-09T15:09:27.902Z,93039.94
2024-05-09T15:14:31.300Z,93032.94
2024-05-09T15:19:34.890Z,93028.50
2024-05-09T15:24:39.856Z,93023.72
2024-05-09T15:29:44.583Z,93029.16
2024-05-09T15:34:48.038Z,93019.53
2024-05-09T15:39:52.012Z,93024.28
2024-05-09T15:44:55.339Z,93019.66
2024-05-09T15:49:58.792Z,93025.88
2024-05-09T15:55:02.155Z,93019.09
2024-05-09T16:00:09.848Z,93032.13
2024-05-09T16:05:18.560Z,93030.38
2024-05-09T16:10:26.006Z,93035.19
2024-05-09T16:15:35.413Z,93024.53
2024-05-09T16:20:41.652Z,93027.38
2024-05-09T16:25:48.463Z,93037.56
2024-05-09T16:30:52.198Z,93041.88
2024-05-09T16:35:55.473Z,93040.16
2024-05-09T16:40:58.756Z,93045.56
2024-05-09T16:46:04.236Z,93055.53
2024-05-09T16:51:07.548Z,93045.13
2024-05-09T16:56:10.982Z,93060.50
2024-05-09T17:01:17.776Z,93053.19
2024-05-09T17:06:21.718Z,93072.41
2024-05-09T17:11:25.281Z,93075.06
2024-05-09T17:16:30.812Z,93060.56
2024-05-09T17:21:34.402Z,93042.34
2024-05-09T17:26:37.763Z,93037.25
2024-05-09T17:31:41.031Z,93019.56
2024-05-09T17:36:44.775Z,93026.69
2024-05-09T17:41:48.139Z,93034.97
2024-05-09T17:46:51.568Z,93044.81
2024-05-09T17:51:55.427Z,93043.50
2024-05-09T17:56:58.950Z,93057.34
2024-05-09T18:02:02.512Z,93086.91
2024-05-09T18:07:06.351Z,93084.44
2024-05-09T18:12:09.709Z,93084.75
2024-05-09T18:17:13.811Z,93090.38
2024-05-09T18:22:17.518Z,93096.75
2024-05-09T18:27:20.828Z,93111.13
2024-05-09T18:32:24.305Z,93113.41
2024-05-09T18:37:27.794Z,93120.47
2024-05-09T18:42:31.113Z,93115.44
2024-05-09T18:47:35.019Z,93117.53
2024-05-09T18:52:38.526Z,93123.19
2024-05-09T18:57:42.205Z,93135.41
2024-05-09T19:02:46.235Z,93147.69
2024-05-09T19:07:49.835Z,93150.63
2024-05-09T19:12:53.455Z,93154.72
2024-05-09T19:17:56.942Z,93154.69
2024-05-09T19:23:00.451Z,93165.34
2024-05-09T19:28:05.192Z,93162.56
2024-05-09T19:33:11.265Z,93162.97
2024-05-09T19:38:16.301Z,93170.50
2024-05-09T19:43:20.146Z,93185.50
2024-05-09T19:48:23.850Z,93189.13
2024-05-09T19:53:27.194Z,93211.75
2024-05-09T19:58:30.537Z,93211.44
2024-05-09T20:03:37.684Z,93222.38
2024-05-09T20:08:41.375Z,93219.25
2024-05-09T20:13:44.723Z,93201.84
2024-05-09T20:18:48.170Z,93217.94
2024-05-09T20:23:52.059Z,93232.09
2024-05-09T20:28:55.262Z,93213.00
2024-05-09T20:33:58.499Z,93224.81
2024-05-09T20:39:01.966Z,93227.19
2024-05-09T20:44:05.296Z,93213.59
2024-05-09T20:49:08.892Z,93226.50
2024-05-09T20:54:12.582Z,93242.16
2024-05-09T20:59:15.963Z,93246.06
2024-05-09T21:04:19.345Z,93249.53
2024-05-09T21:09:26.191Z,93258.13
2024-05-09T21:14:30.505Z,93263.16
2024-05-09T21:19:33.732Z,93279.53
2024-05-09T21:24:36.967Z,93308.03
2024-05-09T21:29:40.564Z,93316.66
2024-05-09T21:34:44.228Z,93318.91
2024-05-09T21:39:48.298Z,93312.28
2024-05-09T21:44:51.668Z,93274.34
2024-05-09T21:49:55.055Z,93268.16
2024-05-09T21:54:58.436Z,93265.13
2024-05-09T22:00:02.125Z,93255.78
2024-05-09T22:05:08.470Z,93256.22
2024-05-09T22:10:22.653Z,93259.00
2024-05-09T22:15:30.210Z,93262.97
2024-05-09T22:20:37.738Z,93265.31
2024-05-09T22:25:43.088Z,93271.94
2024-05-09T22:30:47.550Z,93272.34
2024-05-09T22:35:51.841Z,93279.75
2024-05-09T22:40:55.522Z,93277.81
2024-05-09T22:45:59.201Z,93270.38
2024-05-09T22:51:02.519Z,93275.84
2024-05-09T22:56:05.998Z,93273.50
2024-05-09T23:01:15.543Z,93287.97
2024-05-09T23:06:18.915Z,93286.78
2024-05-09T23:11:22.734Z,93276.22
2024-05-09T23:16:26.310Z,93268.44
2024-05-09T23:21:29.754Z,93273.91
2024-05-09T23:26:33.175Z,93270.78
2024-05-09T23:31:36.450Z,93263.75
2024-05-09T23:36:39.844Z,93274.28
2024-05-09T23:41:43.100Z,93265.72
2024-05-09T23:46:46.426Z,93274.69
2024-05-09T23:51:49.680Z,93270.78
2024-05-09T23:56:52.931Z,93268.03
